createdAt,value
2023-06-19T00:00:37.960Z,100278.38
2023-06-19T00:03:06.312Z,100279.31
2023-06-19T00:05:34.365Z,100273.31
2023-06-19T00:08:04.851Z,100274.22
2023-06-19T00:10:32.848Z,100278.59
2023-06-19T00:13:00.851Z,100272.81
2023-06-19T00:15:30.615Z,100279.03
2023-06-19T00:17:59.940Z,100277.34
2023-06-19T00:20:27.979Z,100273.00
2023-06-19T00:22:56.129Z,100279.88
2023-06-19T00:25:24.031Z,100273.81
2023-06-19T00:27:52.015Z,100279.78
2023-06-19T00:30:20.046Z,100278.03
2023-06-19T00:32:51.653Z,100282.41
2023-06-19T00:35:20.197Z,100283.31
2023-06-19T00:37:48.205Z,100286.00
2023-06-19T00:40:26.876Z,100274.81
2023-06-19T00:42:54.852Z,100284.25
2023-06-19T00:45:23.026Z,100286.91
2023-06-19T00:47:52.575Z,100285.22
2023-06-19T00:50:21.290Z,100284.47
2023-06-19T00:52:49.910Z,100283.75
2023-06-19T00:55:18.988Z,100286.41
2023-06-19T00:57:47.661Z,100291.56
2023-06-19T01:00:16.325Z,100289.81
2023-06-19T01:02:44.355Z,100289.00
2023-06-19T01:05:13.816Z,100282.97
2023-06-19T01:07:48.364Z,100286.50
2023-06-19T01:10:20.966Z,100282.31
2023-06-19T01:12:54.854Z,100272.91
2023-06-19T01:15:24.619Z,100279.78
2023-06-19T01:17:53.408Z,100274.69
2023-06-19T01:20:23.031Z,100276.41
2023-06-19T01:22:52.519Z,100279.94
2023-06-19T01:25:20.455Z,100269.69
2023-06-19T01:27:48.444Z,100271.38
2023-06-19T01:30:16.577Z,100270.47
2023-06-19T01:32:53.279Z,100272.28
2023-06-19T01:35:24.088Z,100276.63
2023-06-19T01:37:55.008Z,100272.41
2023-06-19T01:40:27.136Z,100270.91
2023-06-19T01:42:56.213Z,100274.25
2023-06-19T01:45:24.315Z,100273.47
2023-06-19T01:47:52.356Z,100275.25
2023-06-19T01:50:21.049Z,100277.91
2023-06-19T01:52:49.053Z,100274.38
2023-06-19T01:55:18.709Z,100275.16
2023-06-19T01:57:47.240Z,100285.47
2023-06-19T02:00:15.619Z,100278.50
2023-06-19T02:02:43.809Z,100285.38
2023-06-19T02:05:11.978Z,100277.69
2023-06-19T02:07:39.855Z,100271.72
2023-06-19T02:10:09.155Z,100283.97
2023-06-19T02:12:38.626Z,100271.06
2023-06-19T02:15:07.568Z,100278.84
2023-06-19T02:17:35.513Z,100283.19
2023-06-19T02:20:03.524Z,100277.09
2023-06-19T02:22:31.614Z,100272.88
2023-06-19T02:24:59.540Z,100284.88
2023-06-19T02:27:27.586Z,100292.69
2023-06-19T02:29:56.969Z,100286.63
2023-06-19T02:32:25.363Z,100290.16
2023-06-19T02:34:53.354Z,100291.06
2023-06-19T02:37:21.425Z,100286.13
2023-06-19T02:39:49.458Z,100281.97
2023-06-19T02:42:17.427Z,100286.28
2023-06-19T02:44:45.458Z,100290.63
2023-06-19T02:47:14.790Z,100288.09
2023-06-19T02:49:42.745Z,100290.00
2023-06-19T02:52:10.810Z,100281.53
2023-06-19T02:54:38.793Z,100282.50
2023-06-19T02:57:07.583Z,100276.56
2023-06-19T02:59:35.607Z,100280.09
2023-06-19T03:02:03.798Z,100283.53
2023-06-19T03:04:33.699Z,100283.50
2023-06-19T03:07:01.704Z,100292.03
2023-06-19T03:09:29.601Z,100293.75
2023-06-19T03:11:57.555Z,100293.56
2023-06-19T03:14:25.578Z,100289.88
2023-06-19T03:16:53.659Z,100307.84
2023-06-19T03:19:21.825Z,100300.03
2023-06-19T03:21:51.061Z,100310.44
2023-06-19T03:24:19.009Z,100307.09
2023-06-19T03:26:47.077Z,100301.94
2023-06-19T03:29:15.060Z,100301.94
2023-06-19T03:31:43.079Z,100300.88
2023-06-19T03:34:11.049Z,100299.03
2023-06-19T03:36:39.114Z,100300.56
2023-06-19T03:39:08.475Z,100295.25
2023-06-19T03:41:36.454Z,100295.97
2023-06-19T03:44:04.521Z,100302.78
2023-06-19T03:46:32.545Z,100297.47
2023-06-19T03:49:00.561Z,100299.94
2023-06-19T03:51:30.354Z,100291.25
2023-06-19T03:53:58.339Z,100300.56
2023-06-19T03:56:27.583Z,100303.03
2023-06-19T03:58:55.550Z,100304.44
2023-06-19T04:01:23.505Z,100303.44
2023-06-19T04:03:51.576Z,100306.78
2023-06-19T04:06:19.669Z,100307.63
2023-06-19T04:08:47.749Z,100307.72
2023-06-19T04:11:15.639Z,100297.25
2023-06-19T04:13:45.115Z,100298.00
2023-06-19T04:16:13.190Z,100297.91
2023-06-19T04:18:41.165Z,100302.03
2023-06-19T04:21:09.451Z,100311.31
2023-06-19T04:23:37.411Z,100308.50
2023-06-19T04:26:05.381Z,100308.00
2023-06-19T04:28:33.349Z,100304.63
2023-06-19T04:31:02.649Z,100304.53
2023-06-19T04:33:31.288Z,100303.56
2023-06-19T04:35:59.325Z,100292.94
2023-06-19T04:38:27.243Z,100295.56
2023-06-19T04:40:55.680Z,100298.94
2023-06-19T04:43:25.989Z,100303.28
2023-06-19T04:45:54.756Z,100293.78
2023-06-19T04:48:27.277Z,100294.44
2023-06-19T04:50:57.406Z,100294.59
2023-06-19T04:53:25.504Z,100296.31
2023-06-19T04:55:55.730Z,100291.16
2023-06-19T04:58:24.367Z,100299.72
2023-06-19T05:00:53.648Z,100302.03
2023-06-19T05:03:23.345Z,100292.16
2023-06-19T05:05:51.573Z,100291.84
2023-06-19T05:08:19.405Z,100294.84
2023-06-19T05:10:47.350Z,100288.97
2023-06-19T05:13:15.245Z,100284.13
2023-06-19T05:15:43.256Z,100281.72
2023-06-19T05:18:11.331Z,100288.69
2023-06-19T05:20:40.670Z,100278.78
2023-06-19T05:23:08.583Z,100277.75
2023-06-19T05:25:36.537Z,100278.09
2023-06-19T05:28:06.177Z,100283.53
2023-06-19T05:30:34.406Z,100287.88
2023-06-19T05:33:02.466Z,100291.53
2023-06-19T05:35:31.636Z,100298.88
2023-06-19T05:38:00.944Z,100299.47
2023-06-19T05:40:29.702Z,100295.88
2023-06-19T05:42:57.976Z,100296.25
2023-06-19T05:45:26.080Z,100291.19
2023-06-19T05:47:54.163Z,100303.28
2023-06-19T05:50:22.282Z,100307.00
2023-06-19T05:52:50.367Z,100309.72
2023-06-19T05:55:19.912Z,100312.69
2023-06-19T05:57:47.941Z,100316.16
2023-06-19T06:00:17.157Z,100323.88
2023-06-19T06:02:45.627Z,100322.06
2023-06-19T06:05:13.981Z,100332.72
2023-06-19T06:07:42.063Z,100329.59
2023-06-19T06:10:10.758Z,100340.41
2023-06-19T06:12:40.383Z,100328.38
2023-06-19T06:15:09.383Z,100326.91
2023-06-19T06:17:37.419Z,100344.31
2023-06-19T06:20:10.007Z,100332.66
2023-06-19T06:22:38.549Z,100336.47
2023-06-19T06:25:07.151Z,100353.53
2023-06-19T06:27:35.315Z,100348.88
2023-06-19T06:30:05.252Z,100355.38
2023-06-19T06:32:33.170Z,100353.44
2023-06-19T06:35:01.133Z,100350.41
2023-06-19T06:37:29.200Z,100351.81
2023-06-19T06:39:57.170Z,100356.38
2023-06-19T06:42:25.199Z,100339.88
2023-06-19T06:44:53.357Z,100346.81
2023-06-19T06:47:22.859Z,100345.44
2023-06-19T06:49:50.877Z,100354.03
2023-06-19T06:52:18.986Z,100352.13
2023-06-19T06:54:46.967Z,100350.06
2023-06-19T06:57:17.898Z,100350.28
2023-06-19T06:59:46.979Z,100343.28
2023-06-19T07:02:15.299Z,100348.16
2023-06-19T07:04:44.591Z,100337.53
2023-06-19T07:07:12.528Z,100332.13
2023-06-19T07:09:40.450Z,100339.50
2023-06-19T07:12:09.431Z,100324.97
2023-06-19T07:14:37.519Z,100330.50
2023-06-19T07:17:08.562Z,100331.16
2023-06-19T07:19:36.534Z,100329.72
2023-06-19T07:22:06.737Z,100333.66
2023-06-19T07:24:34.867Z,100333.19
2023-06-19T07:27:03.001Z,100326.41
2023-06-19T07:29:33.656Z,100329.22
2023-06-19T07:32:03.540Z,100331.16
2023-06-19T07:34:32.818Z,100323.78
2023-06-19T07:37:00.821Z,100322.47
2023-06-19T07:39:30.331Z,100322.63
2023-06-19T07:41:58.299Z,100322.38
2023-06-19T07:44:26.297Z,100323.56
2023-06-19T07:46:54.225Z,100329.63
2023-06-19T07:49:22.086Z,100327.66
2023-06-19T07:51:50.409Z,100337.03
2023-06-19T07:54:18.372Z,100330.63
2023-06-19T07:56:47.938Z,100338.72
2023-06-19T07:59:16.092Z,100343.25
2023-06-19T08:01:44.130Z,100342.44
2023-06-19T08:04:12.187Z,100347.78
2023-06-19T08:06:43.277Z,100349.16
2023-06-19T08:09:11.258Z,100347.59
2023-06-19T08:11:39.381Z,100347.97
2023-06-19T08:14:09.043Z,100343.56
2023-06-19T08:16:37.252Z,100345.16
2023-06-19T08:19:05.401Z,100346.25
2023-06-19T08:21:33.569Z,100348.38
2023-06-19T08:24:01.796Z,100350.03
2023-06-19T08:26:29.917Z,100338.88
2023-06-19T08:28:57.971Z,100340.06
2023-06-19T08:31:28.722Z,100352.22
2023-06-19T08:33:56.878Z,100346.56
2023-06-19T08:36:27.416Z,100343.78
2023-06-19T08:38:55.856Z,100349.16
2023-06-19T08:41:26.606Z,100335.44
2023-06-19T08:43:55.038Z,100352.31
2023-06-19T08:46:23.116Z,100343.50
2023-06-19T08:48:55.494Z,100340.44
2023-06-19T08:51:23.604Z,100345.31
2023-06-19T08:53:57.010Z,100343.72
2023-06-19T08:56:28.028Z,100342.19
2023-06-19T08:58:56.205Z,100342.91
2023-06-19T09:01:28.158Z,100345.50
2023-06-19T09:03:57.760Z,100345.50
2023-06-19T09:06:28.105Z,100345.50
2023-06-19T09:09:03.616Z,100340.69
2023-06-19T09:11:31.673Z,100338.59
2023-06-19T09:14:02.228Z,100338.94
2023-06-19T09:16:40.111Z,100335.94
2023-06-19T09:19:09.679Z,100335.63
2023-06-19T09:21:39.514Z,100333.28
2023-06-19T09:24:08.822Z,100335.69
2023-06-19T09:26:36.972Z,100336.78
2023-06-19T09:29:19.485Z,100337.66
2023-06-19T09:31:49.297Z,100335.06
2023-06-19T09:34:18.729Z,100342.31
2023-06-19T09:36:48.140Z,100333.56
2023-06-19T09:39:18.460Z,100332.22
2023-06-19T09:41:48.971Z,100327.44
2023-06-19T09:44:17.724Z,100332.84
2023-06-19T09:46:49.090Z,100336.00
2023-06-19T09:49:20.334Z,100330.19
2023-06-19T09:51:48.603Z,100328.88
2023-06-19T09:54:18.102Z,100330.19
2023-06-19T09:56:46.632Z,100338.63
2023-06-19T09:59:14.908Z,100341.78
2023-06-19T10:01:44.262Z,100337.66
2023-06-19T10:04:13.774Z,100340.25
2023-06-19T10:06:47.223Z,100330.16
2023-06-19T10:09:19.002Z,100316.53
2023-06-19T10:11:49.160Z,100320.72
2023-06-19T10:14:19.651Z,100324.38
2023-06-19T10:16:47.882Z,100317.06
2023-06-19T10:19:17.377Z,100316.75
2023-06-19T10:21:51.375Z,100316.25
2023-06-19T10:24:21.414Z,100312.63
2023-06-19T10:27:01.408Z,100308.84
2023-06-19T10:29:41.122Z,100303.19
2023-06-19T10:32:10.329Z,100304.19
2023-06-19T10:34:38.612Z,100309.41
2023-06-19T10:37:08.100Z,100304.72
2023-06-19T10:39:36.283Z,100301.59
2023-06-19T10:42:08.607Z,100298.19
2023-06-19T10:44:38.239Z,100299.50
2023-06-19T10:47:08.622Z,100301.09
2023-06-19T10:49:37.371Z,100295.28
2023-06-19T10:52:07.731Z,100303.06
2023-06-19T10:54:35.772Z,100297.19
2023-06-19T10:57:06.736Z,100298.63
2023-06-19T10:59:36.349Z,100290.88
2023-06-19T11:02:04.632Z,100300.84
2023-06-19T11:04:32.846Z,100292.84
2023-06-19T11:07:09.662Z,100306.59
2023-06-19T11:09:37.687Z,100296.03
2023-06-19T11:12:09.104Z,100290.16
2023-06-19T11:14:40.934Z,100290.16
2023-06-19T11:17:09.074Z,100285.38
2023-06-19T11:19:39.464Z,100280.44
2023-06-19T11:22:09.110Z,100281.88
2023-06-19T11:24:37.421Z,100278.88
2023-06-19T11:27:06.529Z,100286.94
2023-06-19T11:29:36.672Z,100283.13
2023-06-19T11:32:08.790Z,100279.38
2023-06-19T11:34:38.188Z,100276.31
2023-06-19T11:37:15.765Z,100271.84
2023-06-19T11:39:45.701Z,100270.78
2023-06-19T11:42:13.990Z,100265.97
2023-06-19T11:44:55.964Z,100263.41
2023-06-19T11:47:24.455Z,100259.28
2023-06-19T11:49:53.033Z,100261.41
2023-06-19T11:52:22.392Z,100271.47
2023-06-19T11:54:50.342Z,100259.03
2023-06-19T11:57:18.407Z,100261.97
2023-06-19T11:59:46.566Z,100255.72
2023-06-19T12:02:14.961Z,100253.28
2023-06-19T12:04:43.114Z,100264.06
2023-06-19T12:07:12.661Z,100257.69
2023-06-19T12:09:42.769Z,100261.69
2023-06-19T12:12:11.568Z,100259.56
2023-06-19T12:14:40.872Z,100264.69
2023-06-19T12:17:09.754Z,100264.28
2023-06-19T12:19:37.991Z,100266.94
2023-06-19T12:22:06.865Z,100268.31
2023-06-19T12:24:34.811Z,100263.41
2023-06-19T12:27:04.250Z,100271.50
2023-06-19T12:29:32.241Z,100267.16
2023-06-19T12:32:03.603Z,100268.09
2023-06-19T12:34:32.124Z,100263.47
2023-06-19T12:37:00.161Z,100271.22
2023-06-19T12:39:28.921Z,100260.34
2023-06-19T12:41:56.878Z,100258.69
2023-06-19T12:44:26.809Z,100266.75
2023-06-19T12:46:55.068Z,100255.56
2023-06-19T12:49:23.061Z,100257.25
2023-06-19T12:51:53.193Z,100262.41
2023-06-19T12:54:21.387Z,100257.28
2023-06-19T12:56:49.454Z,100252.81
2023-06-19T12:59:17.610Z,100249.91
2023-06-19T13:01:47.315Z,100248.28
2023-06-19T13:04:16.400Z,100240.84
2023-06-19T13:06:44.463Z,100244.66
2023-06-19T13:09:12.472Z,100237.81
2023-06-19T13:11:40.439Z,100235.78
2023-06-19T13:14:08.484Z,100235.06
2023-06-19T13:19:08.745Z,100228.06
2023-06-19T13:21:37.779Z,100220.72
2023-06-19T13:24:06.418Z,100226.78
2023-06-19T13:26:34.423Z,100220.34
2023-06-19T13:29:02.494Z,100218.28
2023-06-19T13:31:30.524Z,100216.97
2023-06-19T13:33:59.818Z,100204.75
2023-06-19T13:36:29.327Z,100218.94
2023-06-19T13:38:57.448Z,100221.44
2023-06-19T13:41:25.935Z,100215.94
2023-06-19T13:43:55.081Z,100216.56
2023-06-19T13:46:23.795Z,100215.59
2023-06-19T13:48:52.747Z,100214.88
2023-06-19T13:51:22.091Z,100207.81
2023-06-19T13:53:52.646Z,100206.97
2023-06-19T13:56:20.766Z,100205.38
2023-06-19T13:58:49.134Z,100203.09
2023-06-19T14:01:17.269Z,100203.31
2023-06-19T14:03:45.415Z,100191.72
2023-06-19T14:06:13.850Z,100194.28
2023-06-19T14:08:41.836Z,100194.50
2023-06-19T14:11:11.437Z,100200.13
2023-06-19T14:13:39.488Z,100201.03
2023-06-19T14:16:07.476Z,100203.69
2023-06-19T14:18:39.100Z,100194.31
2023-06-19T14:21:07.039Z,100210.16
2023-06-19T14:23:40.185Z,100203.69
2023-06-19T14:26:08.057Z,100196.28
2023-06-19T14:28:39.485Z,100202.28
2023-06-19T14:31:07.661Z,100192.56
2023-06-19T14:33:36.934Z,100187.41
2023-06-19T14:36:08.482Z,100189.22
2023-06-19T14:38:36.464Z,100188.88
2023-06-19T14:41:05.059Z,100186.97
2023-06-19T14:43:34.466Z,100179.66
2023-06-19T14:46:08.264Z,100181.13
2023-06-19T14:48:36.329Z,100178.97
2023-06-19T14:51:05.836Z,100177.06
2023-06-19T14:53:34.675Z,100178.63
2023-06-19T14:56:03.754Z,100174.69
2023-06-19T14:58:31.804Z,100177.00
2023-06-19T15:01:00.144Z,100176.03
2023-06-19T15:03:29.686Z,100183.72
2023-06-19T15:06:00.716Z,100181.22
2023-06-19T15:08:28.740Z,100177.72
2023-06-19T15:10:57.081Z,100181.44
2023-06-19T15:13:25.007Z,100176.16
2023-06-19T15:15:53.000Z,100170.41
2023-06-19T15:18:21.043Z,100167.19
2023-06-19T15:20:50.813Z,100177.53
2023-06-19T15:23:20.062Z,100172.97
2023-06-19T15:25:49.224Z,100169.06
2023-06-19T15:28:17.210Z,100161.00
2023-06-19T15:30:45.218Z,100164.72
2023-06-19T15:33:13.727Z,100166.06
2023-06-19T15:35:42.670Z,100165.94
2023-06-19T15:38:12.040Z,100163.66
2023-06-19T15:40:40.041Z,100158.75
2023-06-19T15:43:08.089Z,100160.19
2023-06-19T15:45:36.144Z,100165.47
2023-06-19T15:48:04.456Z,100167.28
2023-06-19T15:50:34.144Z,100171.13
2023-06-19T15:53:02.650Z,100172.78
2023-06-19T15:55:32.237Z,100175.31
2023-06-19T15:58:03.031Z,100175.31
2023-06-19T16:00:30.998Z,100174.69
2023-06-19T16:02:59.097Z,100175.78
2023-06-19T16:05:27.614Z,100177.69
2023-06-19T16:07:55.669Z,100177.09
2023-06-19T16:10:23.909Z,100170.31
2023-06-19T16:12:53.410Z,100176.66
2023-06-19T16:15:26.030Z,100176.78
2023-06-19T16:17:55.131Z,100174.38
2023-06-19T16:20:24.510Z,100176.31
2023-06-19T16:22:52.832Z,100176.63
2023-06-19T16:25:20.869Z,100172.44
2023-06-19T16:27:48.898Z,100174.69
2023-06-19T16:30:18.353Z,100172.41
2023-06-19T16:32:46.604Z,100168.41
2023-06-19T16:35:15.982Z,100174.88
2023-06-19T16:37:44.013Z,100176.16
2023-06-19T16:40:12.909Z,100176.50
2023-06-19T16:42:40.839Z,100172.06
2023-06-19T16:45:09.847Z,100172.94
2023-06-19T16:47:39.118Z,100175.44
2023-06-19T16:50:07.980Z,100183.25
2023-06-19T16:52:36.124Z,100183.97
2023-06-19T16:55:04.382Z,100177.50
2023-06-19T16:57:34.022Z,100176.47
2023-06-19T17:00:02.650Z,100173.06
2023-06-19T17:02:30.801Z,100176.47
2023-06-19T17:05:00.353Z,100177.50
2023-06-19T17:07:28.407Z,100177.97
2023-06-19T17:09:56.417Z,100181.16
2023-06-19T17:12:24.390Z,100179.94
2023-06-19T17:14:52.398Z,100183.09
2023-06-19T17:17:20.616Z,100184.41
2023-06-19T17:19:48.901Z,100190.84
2023-06-19T17:22:20.695Z,100199.00
2023-06-19T17:24:48.713Z,100200.88
2023-06-19T17:27:17.022Z,100196.69
2023-06-19T17:29:45.542Z,100196.56
2023-06-19T17:32:13.467Z,100198.16
2023-06-19T17:34:41.503Z,100201.72
2023-06-19T17:37:09.572Z,100204.59
2023-06-19T17:39:38.986Z,100203.75
2023-06-19T17:42:09.303Z,100205.75
2023-06-19T17:44:37.632Z,100209.56
2023-06-19T17:47:06.592Z,100201.16
2023-06-19T17:49:34.831Z,100197.13
2023-06-19T17:52:02.741Z,100200.94
2023-06-19T17:54:30.724Z,100200.94
2023-06-19T17:57:00.621Z,100197.81
2023-06-19T17:59:31.856Z,100201.41
2023-06-19T18:02:00.159Z,100199.69
2023-06-19T18:04:28.975Z,100200.84
2023-06-19T18:06:57.354Z,100213.22
2023-06-19T18:09:25.705Z,100215.13
2023-06-19T18:11:53.989Z,100216.91
2023-06-19T18:14:26.435Z,100211.75
2023-06-19T18:16:58.775Z,100202.84
2023-06-19T18:19:26.819Z,100222.50
2023-06-19T18:21:54.935Z,100222.69
2023-06-19T18:24:23.124Z,100222.69
2023-06-19T18:26:51.384Z,100219.34
2023-06-19T18:29:25.069Z,100206.53
2023-06-19T18:31:53.170Z,100220.56
2023-06-19T18:34:21.116Z,100218.06
2023-06-19T18:36:52.596Z,100219.09
2023-06-19T18:39:21.064Z,100221.22
2023-06-19T18:41:49.286Z,100231.00
2023-06-19T18:44:17.612Z,100232.16
2023-06-19T18:46:47.041Z,100234.28
2023-06-19T18:49:15.069Z,100237.13
2023-06-19T18:51:43.696Z,100248.00
2023-06-19T18:54:11.982Z,100252.63
2023-06-19T18:56:40.636Z,100246.78
2023-06-19T18:59:11.597Z,100249.88
2023-06-19T19:01:39.696Z,100251.94
2023-06-19T19:04:09.125Z,100253.22
2023-06-19T19:06:37.668Z,100257.91
2023-06-19T19:09:05.808Z,100260.97
2023-06-19T19:11:34.049Z,100259.53
2023-06-19T19:14:01.879Z,100252.03
2023-06-19T19:16:32.499Z,100259.09
2023-06-19T19:19:00.821Z,100260.03
2023-06-19T19:21:30.309Z,100263.00
2023-06-19T19:23:58.683Z,100264.84
2023-06-19T19:26:27.094Z,100266.84
2023-06-19T19:28:55.448Z,100265.28
2023-06-19T19:31:23.329Z,100273.44
2023-06-19T19:33:51.376Z,100271.13
2023-06-19T19:36:19.424Z,100274.91
2023-06-19T19:38:48.998Z,100270.97
2023-06-19T19:41:17.135Z,100271.34
2023-06-19T19:43:45.379Z,100271.63
2023-06-19T19:46:13.445Z,100272.88
2023-06-19T19:48:41.540Z,100270.44
2023-06-19T19:51:09.593Z,100285.47
2023-06-19T19:53:37.544Z,100270.94
2023-06-19T19:56:07.297Z,100284.91
2023-06-19T19:58:38.965Z,100287.69
2023-06-19T20:01:07.508Z,100291.47
2023-06-19T20:03:37.873Z,100278.88
2023-06-19T20:06:06.383Z,100276.25
2023-06-19T20:08:34.536Z,100280.09
2023-06-19T20:11:02.698Z,100283.03
2023-06-19T20:13:34.483Z,100284.13
2023-06-19T20:16:02.623Z,100291.28
2023-06-19T20:18:31.066Z,100288.94
2023-06-19T20:21:02.146Z,100277.75
2023-06-19T20:23:30.503Z,100279.63
2023-06-19T20:25:58.604Z,100286.78
2023-06-19T20:28:26.679Z,100284.31
2023-06-19T20:30:56.390Z,100287.13
2023-06-19T20:33:24.475Z,100283.94
2023-06-19T20:35:52.506Z,100280.72
2023-06-19T20:38:21.441Z,100289.63
2023-06-19T20:40:49.885Z,100284.66
2023-06-19T20:43:23.614Z,100290.97
2023-06-19T20:45:51.494Z,100290.97
2023-06-19T20:48:20.944Z,100293.84
2023-06-19T20:50:48.970Z,100289.66
2023-06-19T20:53:17.014Z,100297.56
2023-06-19T20:55:45.357Z,100285.19
2023-06-19T20:58:13.356Z,100288.72
2023-06-19T21:00:41.320Z,100287.03
2023-06-19T21:03:11.912Z,100284.53
2023-06-19T21:05:41.818Z,100276.53
2023-06-19T21:08:09.964Z,100286.19
2023-06-19T21:10:37.960Z,100282.81
2023-06-19T21:13:21.420Z,100292.75
2023-06-19T21:15:50.900Z,100288.78
2023-06-19T21:18:19.379Z,100290.84
2023-06-19T21:20:54.306Z,100291.13
2023-06-19T21:23:22.260Z,100290.50
2023-06-19T21:25:50.775Z,100290.84
2023-06-19T21:28:18.850Z,100285.81
2023-06-19T21:30:47.009Z,100288.59
2023-06-19T21:33:15.038Z,100288.00
2023-06-19T21:35:43.109Z,100291.56
2023-06-19T21:38:13.192Z,100289.03
2023-06-19T21:40:41.105Z,100279.72
2023-06-19T21:43:09.341Z,100289.38
2023-06-19T21:45:37.525Z,100293.00
2023-06-19T21:48:06.393Z,100289.72
2023-06-19T21:50:34.863Z,100293.53
2023-06-19T21:53:03.129Z,100298.88
2023-06-19T21:55:32.785Z,100290.31
2023-06-19T21:58:01.052Z,100299.25
2023-06-19T22:00:29.939Z,100297.66
2023-06-19T22:02:59.097Z,100296.16
2023-06-19T22:05:27.558Z,100296.47
2023-06-19T22:07:55.730Z,100299.84
2023-06-19T22:10:24.976Z,100307.91
2023-06-19T22:12:54.596Z,100309.75
2023-06-19T22:15:25.921Z,100305.53
2023-06-19T22:17:54.063Z,100306.47
2023-06-19T22:20:22.449Z,100303.09
2023-06-19T22:22:50.720Z,100309.06
2023-06-19T22:25:18.959Z,100307.41
2023-06-19T22:27:47.618Z,100301.31
2023-06-19T22:30:17.689Z,100306.47
2023-06-19T22:32:45.927Z,100307.31
2023-06-19T22:35:13.985Z,100311.53
2023-06-19T22:37:42.209Z,100314.91
2023-06-19T22:40:11.223Z,100307.03
2023-06-19T22:42:40.088Z,100303.56
2023-06-19T22:45:09.232Z,100309.59
2023-06-19T22:47:39.460Z,100306.13
2023-06-19T22:50:08.756Z,100294.84
2023-06-19T22:52:37.156Z,100298.53
2023-06-19T22:55:06.469Z,100293.34
2023-06-19T22:57:36.316Z,100294.28
2023-06-19T23:00:09.046Z,100297.84
2023-06-19T23:02:38.631Z,100298.69
2023-06-19T23:05:07.399Z,100297.84
2023-06-19T23:07:35.348Z,100296.22
2023-06-19T23:10:05.052Z,100292.91
2023-06-19T23:12:33.519Z,100289.69
2023-06-19T23:15:01.910Z,100296.63
2023-06-19T23:17:29.923Z,100291.56
2023-06-19T23:19:59.665Z,100288.94
2023-06-19T23:22:27.929Z,100288.09
2023-06-19T23:24:56.195Z,100296.78
2023-06-19T23:27:24.285Z,100292.56
2023-06-19T23:29:52.888Z,100299.75
2023-06-19T23:32:23.221Z,100295.53
2023-06-19T23:34:51.358Z,100301.53
2023-06-19T23:37:21.041Z,100299.91
2023-06-19T23:39:49.070Z,100297.47
2023-06-19T23:42:19.080Z,100299.91
2023-06-19T23:44:47.058Z,100307.78
2023-06-19T23:47:14.976Z,100305.25
2023-06-19T23:49:44.300Z,100310.59
2023-06-19T23:52:12.528Z,100306.34
2023-06-19T23:54:41.940Z,100308.88
2023-06-19T23:57:10.060Z,100304.56
2023-06-19T23:59:38.201Z,100302.88
